Vancleve, Kentucky
Current Conditions -  °F | °C
As of 1:53 PM on Friday 24 Oct 2014 (Local Time) from KJKL Reporting Station
Clear Clear  
Wind Chill: 58°   Ceiling: Unl
Heat Index: 58°   Visibility: 10mi
Dew Point: 44°   Wind: 0mph
Humidity: 60%   Direction: NA
Pressure: 30.09"   Gusts: NA
Location:  37.63°N, 83.41°W
Report Text: KJKL 241753Z AUTO 00000KT 10SM CLR 14/07 A3009 RMK AO2 SLP189 T01440067 10150 20056 58014
Loading
Personal Weather Stations






























Interactive Weather Map
Tropical Storm Tracking
New forecast layout! Learn more

10-Day Weather Forecast

Advertisements
Track Severe Weather on mobile